sensor_id;sensor_type;location;lat;lon;timestamp;P1;durP1;ratioP1;P2;durP2;ratioP2
72358;SDS011;60317;48.880;-0.862;2023-03-08T00:00:06;1.48;;;1.20;;
72358;SDS011;60317;48.880;-0.862;2023-03-08T00:02:35;1.95;;;1.35;;
72358;SDS011;60317;48.880;-0.862;2023-03-08T00:05:01;1.27;;;1.17;;
72358;SDS011;60317;48.880;-0.862;2023-03-08T00:07:29;2.38;;;1.40;;
72358;SDS011;60317;48.880;-0.862;2023-03-08T00:09:55;1.77;;;1.35;;
72358;SDS011;60317;48.880;-0.862;2023-03-08T00:12:22;2.85;;;1.42;;
72358;SDS011;60317;48.880;-0.862;2023-03-08T00:14:50;1.80;;;1.30;;
72358;SDS011;60317;48.880;-0.862;2023-03-08T00:17:17;1.90;;;1.20;;
72358;SDS011;60317;48.880;-0.862;2023-03-08T00:19:44;2.13;;;1.50;;
72358;SDS011;60317;48.880;-0.862;2023-03-08T00:22:10;1.88;;;1.25;;
72358;SDS011;60317;48.880;-0.862;2023-03-08T00:24:37;1.60;;;1.15;;
72358;SDS011;60317;48.880;-0.862;2023-03-08T00:27:04;1.10;;;1.00;;
72358;SDS011;60317;48.880;-0.862;2023-03-08T00:29:30;1.23;;;0.90;;
72358;SDS011;60317;48.880;-0.862;2023-03-08T00:31:58;1.30;;;1.02;;
72358;SDS011;60317;48.880;-0.862;2023-03-08T00:34:25;1.67;;;1.00;;
72358;SDS011;60317;48.880;-0.862;2023-03-08T00:36:51;1.77;;;1.20;;
72358;SDS011;60317;48.880;-0.862;2023-03-08T00:39:18;0.88;;;0.80;;
72358;SDS011;60317;48.880;-0.862;2023-03-08T00:41:45;1.65;;;1.25;;
72358;SDS011;60317;48.880;-0.862;2023-03-08T00:44:11;1.42;;;1.05;;
72358;SDS011;60317;48.880;-0.862;2023-03-08T00:46:38;1.20;;;1.08;;
72358;SDS011;60317;48.880;-0.862;2023-03-08T00:49:06;1.95;;;1.10;;
72358;SDS011;60317;48.880;-0.862;2023-03-08T00:51:32;1.33;;;1.00;;
72358;SDS011;60317;48.880;-0.862;2023-03-08T00:53:59;0.88;;;0.88;;
72358;SDS011;60317;48.880;-0.862;2023-03-08T00:56:25;1.50;;;0.90;;
72358;SDS011;60317;48.880;-0.862;2023-03-08T00:58:52;0.90;;;0.90;;
72358;SDS011;60317;48.880;-0.862;2023-03-08T01:01:18;1.00;;;0.95;;
72358;SDS011;60317;48.880;-0.862;2023-03-08T01:03:45;1.52;;;1.20;;
72358;SDS011;60317;48.880;-0.862;2023-03-08T01:06:13;0.80;;;0.80;;
72358;SDS011;60317;48.880;-0.862;2023-03-08T01:08:40;1.00;;;0.90;;
72358;SDS011;60317;48.880;-0.862;2023-03-08T01:11:11;1.35;;;1.10;;
72358;SDS011;60317;48.880;-0.862;2023-03-08T01:13:40;1.10;;;0.95;;
72358;SDS011;60317;48.880;-0.862;2023-03-08T01:16:12;1.13;;;0.80;;
72358;SDS011;60317;48.880;-0.862;2023-03-08T01:18:40;1.40;;;1.10;;
72358;SDS011;60317;48.880;-0.862;2023-03-08T01:21:07;0.77;;;0.77;;
72358;SDS011;60317;48.880;-0.862;2023-03-08T01:23:36;1.00;;;0.90;;
72358;SDS011;60317;48.880;-0.862;2023-03-08T01:26:03;1.42;;;0.88;;
72358;SDS011;60317;48.880;-0.862;2023-03-08T01:28:31;1.20;;;1.00;;
72358;SDS011;60317;48.880;-0.862;2023-03-08T01:31:00;1.02;;;0.70;;
72358;SDS011;60317;48.880;-0.862;2023-03-08T01:33:27;1.17;;;0.80;;
72358;SDS011;60317;48.880;-0.862;2023-03-08T01:35:54;1.48;;;1.00;;
72358;SDS011;60317;48.880;-0.862;2023-03-08T01:38:21;0.95;;;0.65;;
72358;SDS011;60317;48.880;-0.862;2023-03-08T01:40:53;1.17;;;0.90;;
72358;SDS011;60317;48.880;-0.862;2023-03-08T01:43:21;0.73;;;0.73;;
72358;SDS011;60317;48.880;-0.862;2023-03-08T01:46:03;1.00;;;0.80;;
72358;SDS011;60317;48.880;-0.862;2023-03-08T01:48:34;0.85;;;0.70;;
72358;SDS011;60317;48.880;-0.862;2023-03-08T01:51:03;1.02;;;0.80;;
72358;SDS011;60317;48.880;-0.862;2023-03-08T01:53:32;0.82;;;0.80;;
72358;SDS011;60317;48.880;-0.862;2023-03-08T01:56:03;0.90;;;0.80;;
72358;SDS011;60317;48.880;-0.862;2023-03-08T01:58:30;0.85;;;0.82;;
72358;SDS011;60317;48.880;-0.862;2023-03-08T02:00:57;0.75;;;0.60;;
72358;SDS011;60317;48.880;-0.862;2023-03-08T02:03:24;1.48;;;1.02;;
72358;SDS011;60317;48.880;-0.862;2023-03-08T02:05:50;0.80;;;0.70;;
72358;SDS011;60317;48.880;-0.862;2023-03-08T02:08:17;1.10;;;0.80;;
72358;SDS011;60317;48.880;-0.862;2023-03-08T02:10:44;2.47;;;0.70;;
72358;SDS011;60317;48.880;-0.862;2023-03-08T02:13:12;0.73;;;0.73;;
72358;SDS011;60317;48.880;-0.862;2023-03-08T02:15:38;0.70;;;0.70;;
72358;SDS011;60317;48.880;-0.862;2023-03-08T02:18:05;2.03;;;0.88;;
72358;SDS011;60317;48.880;-0.862;2023-03-08T02:20:33;0.63;;;0.60;;
72358;SDS011;60317;48.880;-0.862;2023-03-08T02:23:11;0.50;;;0.50;;
72358;SDS011;60317;48.880;-0.862;2023-03-08T02:25:39;1.20;;;0.88;;
72358;SDS011;60317;48.880;-0.862;2023-03-08T02:28:07;0.68;;;0.60;;
72358;SDS011;60317;48.880;-0.862;2023-03-08T02:30:35;0.80;;;0.60;;
72358;SDS011;60317;48.880;-0.862;2023-03-08T02:33:03;0.70;;;0.60;;
72358;SDS011;60317;48.880;-0.862;2023-03-08T02:35:30;0.70;;;0.70;;
72358;SDS011;60317;48.880;-0.862;2023-03-08T02:37:57;0.80;;;0.80;;
72358;SDS011;60317;48.880;-0.862;2023-03-08T02:40:25;0.73;;;0.73;;
72358;SDS011;60317;48.880;-0.862;2023-03-08T02:42:52;0.50;;;0.32;;
72358;SDS011;60317;48.880;-0.862;2023-03-08T02:45:18;0.63;;;0.63;;
72358;SDS011;60317;48.880;-0.862;2023-03-08T02:47:45;0.60;;;0.60;;
72358;SDS011;60317;48.880;-0.862;2023-03-08T02:50:12;0.90;;;0.50;;
72358;SDS011;60317;48.880;-0.862;2023-03-08T02:52:39;0.50;;;0.45;;
72358;SDS011;60317;48.880;-0.862;2023-03-08T02:55:06;0.55;;;0.55;;
72358;SDS011;60317;48.880;-0.862;2023-03-08T02:57:34;0.95;;;0.70;;
72358;SDS011;60317;48.880;-0.862;2023-03-08T03:00:01;1.40;;;0.60;;
72358;SDS011;60317;48.880;-0.862;2023-03-08T03:02:28;1.70;;;0.70;;
72358;SDS011;60317;48.880;-0.862;2023-03-08T03:04:54;0.30;;;0.30;;
72358;SDS011;60317;48.880;-0.862;2023-03-08T03:07:21;0.40;;;0.40;;
72358;SDS011;60317;48.880;-0.862;2023-03-08T03:09:47;0.60;;;0.60;;
72358;SDS011;60317;48.880;-0.862;2023-03-08T03:12:14;0.50;;;0.50;;
72358;SDS011;60317;48.880;-0.862;2023-03-08T03:14:42;0.50;;;0.50;;
72358;SDS011;60317;48.880;-0.862;2023-03-08T03:17:08;1.38;;;0.60;;
72358;SDS011;60317;48.880;-0.862;2023-03-08T03:19:35;0.50;;;0.50;;
72358;SDS011;60317;48.880;-0.862;2023-03-08T03:22:03;0.52;;;0.43;;
72358;SDS011;60317;48.880;-0.862;2023-03-08T03:24:30;0.73;;;0.50;;
72358;SDS011;60317;48.880;-0.862;2023-03-08T03:26:56;0.43;;;0.43;;
72358;SDS011;60317;48.880;-0.862;2023-03-08T03:29:23;0.28;;;0.28;;
72358;SDS011;60317;48.880;-0.862;2023-03-08T03:31:51;0.35;;;0.35;;
72358;SDS011;60317;48.880;-0.862;2023-03-08T03:34:17;0.77;;;0.50;;
72358;SDS011;60317;48.880;-0.862;2023-03-08T03:36:44;0.30;;;0.30;;
72358;SDS011;60317;48.880;-0.862;2023-03-08T03:39:10;0.45;;;0.45;;
72358;SDS011;60317;48.880;-0.862;2023-03-08T03:41:37;0.20;;;0.20;;
72358;SDS011;60317;48.880;-0.862;2023-03-08T03:44:03;0.30;;;0.30;;
72358;SDS011;60317;48.880;-0.862;2023-03-08T03:46:30;0.40;;;0.40;;
72358;SDS011;60317;48.880;-0.862;2023-03-08T03:48:58;0.50;;;0.40;;
72358;SDS011;60317;48.880;-0.862;2023-03-08T03:51:25;0.30;;;0.30;;
72358;SDS011;60317;48.880;-0.862;2023-03-08T03:53:51;0.98;;;0.47;;
72358;SDS011;60317;48.880;-0.862;2023-03-08T03:56:19;0.30;;;0.30;;
72358;SDS011;60317;48.880;-0.862;2023-03-08T03:58:47;0.38;;;0.38;;
72358;SDS011;60317;48.880;-0.862;2023-03-08T04:01:15;0.20;;;0.20;;
72358;SDS011;60317;48.880;-0.862;2023-03-08T04:03:43;0.40;;;0.40;;
72358;SDS011;60317;48.880;-0.862;2023-03-08T04:06:12;0.40;;;0.40;;
72358;SDS011;60317;48.880;-0.862;2023-03-08T04:08:40;0.80;;;0.40;;
72358;SDS011;60317;48.880;-0.862;2023-03-08T04:11:07;0.57;;;0.35;;
72358;SDS011;60317;48.880;-0.862;2023-03-08T04:13:34;0.38;;;0.38;;
72358;SDS011;60317;48.880;-0.862;2023-03-08T04:16:07;0.40;;;0.32;;
72358;SDS011;60317;48.880;-0.862;2023-03-08T04:18:34;0.20;;;0.20;;
72358;SDS011;60317;48.880;-0.862;2023-03-08T04:21:01;0.57;;;0.40;;
72358;SDS011;60317;48.880;-0.862;2023-03-08T04:23:29;0.60;;;0.50;;
72358;SDS011;60317;48.880;-0.862;2023-03-08T04:25:56;2.88;;;0.60;;
72358;SDS011;60317;48.880;-0.862;2023-03-08T04:28:23;0.50;;;0.40;;
72358;SDS011;60317;48.880;-0.862;2023-03-08T04:30:50;0.95;;;0.20;;
72358;SDS011;60317;48.880;-0.862;2023-03-08T04:33:17;0.45;;;0.40;;
72358;SDS011;60317;48.880;-0.862;2023-03-08T04:35:43;0.30;;;0.30;;
72358;SDS011;60317;48.880;-0.862;2023-03-08T04:38:10;1.40;;;0.40;;
72358;SDS011;60317;48.880;-0.862;2023-03-08T04:40:38;0.68;;;0.50;;
72358;SDS011;60317;48.880;-0.862;2023-03-08T04:43:05;1.35;;;0.47;;
72358;SDS011;60317;48.880;-0.862;2023-03-08T04:45:31;0.88;;;0.38;;
72358;SDS011;60317;48.880;-0.862;2023-03-08T04:47:58;1.08;;;0.52;;
72358;SDS011;60317;48.880;-0.862;2023-03-08T04:50:24;0.57;;;0.25;;
72358;SDS011;60317;48.880;-0.862;2023-03-08T04:52:51;0.30;;;0.30;;
72358;SDS011;60317;48.880;-0.862;2023-03-08T04:55:18;1.17;;;0.45;;
72358;SDS011;60317;48.880;-0.862;2023-03-08T04:57:46;0.98;;;0.40;;
72358;SDS011;60317;48.880;-0.862;2023-03-08T05:00:12;2.15;;;0.57;;
72358;SDS011;60317;48.880;-0.862;2023-03-08T05:02:41;0.65;;;0.43;;
72358;SDS011;60317;48.880;-0.862;2023-03-08T05:05:07;1.15;;;0.70;;
72358;SDS011;60317;48.880;-0.862;2023-03-08T05:07:34;1.08;;;0.57;;
72358;SDS011;60317;48.880;-0.862;2023-03-08T05:10:01;0.82;;;0.30;;
72358;SDS011;60317;48.880;-0.862;2023-03-08T05:12:27;0.93;;;0.50;;
72358;SDS011;60317;48.880;-0.862;2023-03-08T05:14:55;0.90;;;0.47;;
72358;SDS011;60317;48.880;-0.862;2023-03-08T05:17:22;1.27;;;0.50;;
72358;SDS011;60317;48.880;-0.862;2023-03-08T05:19:48;1.83;;;0.55;;
72358;SDS011;60317;48.880;-0.862;2023-03-08T05:22:15;2.00;;;0.57;;
72358;SDS011;60317;48.880;-0.862;2023-03-08T05:24:41;2.08;;;0.75;;
72358;SDS011;60317;48.880;-0.862;2023-03-08T05:27:08;2.20;;;0.57;;
72358;SDS011;60317;48.880;-0.862;2023-03-08T05:29:35;1.13;;;0.30;;
72358;SDS011;60317;48.880;-0.862;2023-03-08T05:32:02;1.63;;;0.47;;
72358;SDS011;60317;48.880;-0.862;2023-03-08T05:34:31;1.42;;;0.52;;
72358;SDS011;60317;48.880;-0.862;2023-03-08T05:36:57;2.47;;;0.50;;
72358;SDS011;60317;48.880;-0.862;2023-03-08T05:39:24;2.33;;;0.63;;
72358;SDS011;60317;48.880;-0.862;2023-03-08T05:41:50;1.40;;;0.50;;
72358;SDS011;60317;48.880;-0.862;2023-03-08T05:44:17;2.25;;;0.52;;
72358;SDS011;60317;48.880;-0.862;2023-03-08T05:46:43;1.35;;;0.45;;
72358;SDS011;60317;48.880;-0.862;2023-03-08T05:49:11;1.67;;;0.57;;
72358;SDS011;60317;48.880;-0.862;2023-03-08T05:51:38;1.95;;;0.70;;
72358;SDS011;60317;48.880;-0.862;2023-03-08T05:54:05;3.65;;;0.70;;
72358;SDS011;60317;48.880;-0.862;2023-03-08T05:56:31;1.45;;;0.63;;
72358;SDS011;60317;48.880;-0.862;2023-03-08T05:58:58;3.10;;;0.88;;
72358;SDS011;60317;48.880;-0.862;2023-03-08T06:01:26;1.98;;;0.80;;
72358;SDS011;60317;48.880;-0.862;2023-03-08T06:03:53;1.98;;;0.70;;
72358;SDS011;60317;48.880;-0.862;2023-03-08T06:06:23;3.25;;;0.88;;
72358;SDS011;60317;48.880;-0.862;2023-03-08T06:08:52;34.85;;;2.53;;
72358;SDS011;60317;48.880;-0.862;2023-03-08T06:11:19;35.28;;;3.25;;
72358;SDS011;60317;48.880;-0.862;2023-03-08T06:13:46;29.23;;;2.40;;
72358;SDS011;60317;48.880;-0.862;2023-03-08T06:16:12;17.35;;;2.10;;
72358;SDS011;60317;48.880;-0.862;2023-03-08T06:18:39;20.90;;;3.17;;
72358;SDS011;60317;48.880;-0.862;2023-03-08T06:21:08;24.58;;;1.85;;
72358;SDS011;60317;48.880;-0.862;2023-03-08T06:23:39;14.23;;;1.77;;
72358;SDS011;60317;48.880;-0.862;2023-03-08T06:26:06;22.10;;;2.30;;
72358;SDS011;60317;48.880;-0.862;2023-03-08T06:28:34;12.15;;;2.05;;
72358;SDS011;60317;48.880;-0.862;2023-03-08T06:31:01;20.83;;;1.80;;
72358;SDS011;60317;48.880;-0.862;2023-03-08T06:33:30;12.43;;;1.30;;
72358;SDS011;60317;48.880;-0.862;2023-03-08T06:35:59;11.60;;;1.60;;
72358;SDS011;60317;48.880;-0.862;2023-03-08T06:38:27;9.18;;;1.75;;
72358;SDS011;60317;48.880;-0.862;2023-03-08T06:40:59;9.43;;;1.40;;
72358;SDS011;60317;48.880;-0.862;2023-03-08T06:43:27;10.20;;;1.80;;
72358;SDS011;60317;48.880;-0.862;2023-03-08T06:45:54;12.13;;;1.42;;
72358;SDS011;60317;48.880;-0.862;2023-03-08T06:48:21;10.07;;;1.55;;
72358;SDS011;60317;48.880;-0.862;2023-03-08T06:50:48;8.18;;;1.70;;
72358;SDS011;60317;48.880;-0.862;2023-03-08T06:53:14;10.32;;;1.40;;
72358;SDS011;60317;48.880;-0.862;2023-03-08T06:55:41;5.70;;;1.63;;
72358;SDS011;60317;48.880;-0.862;2023-03-08T06:58:09;15.13;;;1.98;;
72358;SDS011;60317;48.880;-0.862;2023-03-08T07:00:36;11.93;;;1.40;;
72358;SDS011;60317;48.880;-0.862;2023-03-08T07:03:03;11.88;;;1.70;;
72358;SDS011;60317;48.880;-0.862;2023-03-08T07:05:30;9.70;;;1.40;;
72358;SDS011;60317;48.880;-0.862;2023-03-08T07:07:57;6.80;;;1.30;;
72358;SDS011;60317;48.880;-0.862;2023-03-08T07:10:24;6.97;;;1.70;;
72358;SDS011;60317;48.880;-0.862;2023-03-08T07:12:50;6.80;;;1.35;;
72358;SDS011;60317;48.880;-0.862;2023-03-08T07:15:19;7.72;;;1.98;;
72358;SDS011;60317;48.880;-0.862;2023-03-08T07:17:48;8.82;;;1.58;;
72358;SDS011;60317;48.880;-0.862;2023-03-08T07:20:16;12.00;;;1.85;;
72358;SDS011;60317;48.880;-0.862;2023-03-08T07:24:52;6.57;;;1.83;;
72358;SDS011;60317;48.880;-0.862;2023-03-08T07:27:18;6.50;;;1.52;;
72358;SDS011;60317;48.880;-0.862;2023-03-08T07:29:45;6.53;;;1.23;;
72358;SDS011;60317;48.880;-0.862;2023-03-08T07:32:13;10.48;;;1.83;;
72358;SDS011;60317;48.880;-0.862;2023-03-08T07:34:41;15.25;;;2.05;;
72358;SDS011;60317;48.880;-0.862;2023-03-08T07:37:11;6.22;;;1.35;;
72358;SDS011;60317;48.880;-0.862;2023-03-08T07:39:39;11.20;;;3.15;;
72358;SDS011;60317;48.880;-0.862;2023-03-08T07:42:09;10.02;;;1.48;;
72358;SDS011;60317;48.880;-0.862;2023-03-08T07:44:39;9.13;;;1.88;;
72358;SDS011;60317;48.880;-0.862;2023-03-08T07:51:08;14.43;;;2.00;;
72358;SDS011;60317;48.880;-0.862;2023-03-08T07:53:35;13.25;;;2.00;;
72358;SDS011;60317;48.880;-0.862;2023-03-08T07:56:03;12.85;;;1.50;;
72358;SDS011;60317;48.880;-0.862;2023-03-08T07:58:30;8.93;;;1.77;;
72358;SDS011;60317;48.880;-0.862;2023-03-08T08:00:57;9.23;;;1.60;;
72358;SDS011;60317;48.880;-0.862;2023-03-08T08:03:23;9.15;;;1.90;;
72358;SDS011;60317;48.880;-0.862;2023-03-08T08:05:52;11.07;;;1.45;;
72358;SDS011;60317;48.880;-0.862;2023-03-08T08:08:18;10.60;;;2.08;;
72358;SDS011;60317;48.880;-0.862;2023-03-08T08:10:45;10.70;;;1.60;;
72358;SDS011;60317;48.880;-0.862;2023-03-08T08:13:12;10.50;;;1.80;;
72358;SDS011;60317;48.880;-0.862;2023-03-08T08:15:38;11.23;;;2.72;;
72358;SDS011;60317;48.880;-0.862;2023-03-08T08:20:24;9.80;;;1.90;;
72358;SDS011;60317;48.880;-0.862;2023-03-08T08:22:51;10.75;;;1.70;;
72358;SDS011;60317;48.880;-0.862;2023-03-08T08:25:19;17.67;;;1.85;;
72358;SDS011;60317;48.880;-0.862;2023-03-08T08:27:46;15.60;;;2.42;;
72358;SDS011;60317;48.880;-0.862;2023-03-08T08:30:13;10.73;;;2.20;;
72358;SDS011;60317;48.880;-0.862;2023-03-08T08:32:40;15.93;;;2.50;;
72358;SDS011;60317;48.880;-0.862;2023-03-08T08:35:07;12.13;;;2.47;;
72358;SDS011;60317;48.880;-0.862;2023-03-08T08:37:35;13.35;;;2.47;;
72358;SDS011;60317;48.880;-0.862;2023-03-08T08:40:02;13.00;;;2.10;;
72358;SDS011;60317;48.880;-0.862;2023-03-08T08:42:30;11.23;;;2.20;;
72358;SDS011;60317;48.880;-0.862;2023-03-08T08:44:56;11.80;;;1.80;;
72358;SDS011;60317;48.880;-0.862;2023-03-08T08:47:23;9.52;;;2.30;;
72358;SDS011;60317;48.880;-0.862;2023-03-08T08:49:50;12.20;;;2.58;;
72358;SDS011;60317;48.880;-0.862;2023-03-08T08:52:17;9.10;;;2.03;;
72358;SDS011;60317;48.880;-0.862;2023-03-08T08:54:45;12.95;;;2.58;;
72358;SDS011;60317;48.880;-0.862;2023-03-08T08:57:12;11.98;;;1.70;;
72358;SDS011;60317;48.880;-0.862;2023-03-08T08:59:38;13.52;;;2.58;;
72358;SDS011;60317;48.880;-0.862;2023-03-08T09:02:05;17.73;;;2.10;;
72358;SDS011;60317;48.880;-0.862;2023-03-08T09:04:32;14.65;;;2.55;;
72358;SDS011;60317;48.880;-0.862;2023-03-08T09:06:59;11.18;;;2.08;;
72358;SDS011;60317;48.880;-0.862;2023-03-08T09:09:25;9.88;;;1.92;;
72358;SDS011;60317;48.880;-0.862;2023-03-08T09:11:53;12.88;;;2.63;;
72358;SDS011;60317;48.880;-0.862;2023-03-08T09:14:21;15.95;;;2.28;;
72358;SDS011;60317;48.880;-0.862;2023-03-08T09:16:48;9.82;;;2.15;;
72358;SDS011;60317;48.880;-0.862;2023-03-08T09:19:15;11.45;;;2.22;;
72358;SDS011;60317;48.880;-0.862;2023-03-08T09:21:42;14.70;;;2.17;;
72358;SDS011;60317;48.880;-0.862;2023-03-08T09:24:09;22.40;;;2.40;;
72358;SDS011;60317;48.880;-0.862;2023-03-08T09:26:37;30.58;;;3.63;;
72358;SDS011;60317;48.880;-0.862;2023-03-08T09:29:05;19.00;;;3.65;;
72358;SDS011;60317;48.880;-0.862;2023-03-08T09:31:32;18.48;;;4.22;;
72358;SDS011;60317;48.880;-0.862;2023-03-08T09:34:00;28.75;;;3.83;;
72358;SDS011;60317;48.880;-0.862;2023-03-08T09:36:26;24.95;;;3.67;;
72358;SDS011;60317;48.880;-0.862;2023-03-08T09:38:53;19.48;;;3.20;;
72358;SDS011;60317;48.880;-0.862;2023-03-08T09:41:28;16.40;;;3.72;;
72358;SDS011;60317;48.880;-0.862;2023-03-08T09:44:17;15.45;;;3.47;;
72358;SDS011;60317;48.880;-0.862;2023-03-08T09:46:59;17.60;;;3.65;;
72358;SDS011;60317;48.880;-0.862;2023-03-08T09:49:31;17.98;;;3.80;;
72358;SDS011;60317;48.880;-0.862;2023-03-08T09:52:03;22.15;;;3.00;;
72358;SDS011;60317;48.880;-0.862;2023-03-08T09:54:37;19.80;;;3.13;;
72358;SDS011;60317;48.880;-0.862;2023-03-08T09:57:09;16.13;;;3.22;;
72358;SDS011;60317;48.880;-0.862;2023-03-08T09:59:44;11.00;;;2.70;;
72358;SDS011;60317;48.880;-0.862;2023-03-08T10:02:19;16.48;;;2.70;;
72358;SDS011;60317;48.880;-0.862;2023-03-08T10:04:54;15.02;;;3.25;;
72358;SDS011;60317;48.880;-0.862;2023-03-08T10:07:42;10.90;;;2.75;;
72358;SDS011;60317;48.880;-0.862;2023-03-08T10:10:18;13.60;;;2.65;;
72358;SDS011;60317;48.880;-0.862;2023-03-08T10:12:57;16.70;;;3.55;;
72358;SDS011;60317;48.880;-0.862;2023-03-08T10:15:35;14.23;;;2.50;;
72358;SDS011;60317;48.880;-0.862;2023-03-08T10:18:09;15.23;;;2.80;;
72358;SDS011;60317;48.880;-0.862;2023-03-08T10:20:41;19.83;;;2.50;;
72358;SDS011;60317;48.880;-0.862;2023-03-08T10:23:10;11.85;;;2.47;;
72358;SDS011;60317;48.880;-0.862;2023-03-08T10:25:40;13.13;;;2.72;;
72358;SDS011;60317;48.880;-0.862;2023-03-08T10:31:43;16.30;;;2.70;;
72358;SDS011;60317;48.880;-0.862;2023-03-08T10:34:11;21.58;;;2.83;;
72358;SDS011;60317;48.880;-0.862;2023-03-08T10:36:48;16.65;;;2.60;;
72358;SDS011;60317;48.880;-0.862;2023-03-08T10:39:16;8.43;;;2.10;;
72358;SDS011;60317;48.880;-0.862;2023-03-08T10:41:45;24.33;;;2.97;;
72358;SDS011;60317;48.880;-0.862;2023-03-08T10:44:15;13.48;;;3.03;;
72358;SDS011;60317;48.880;-0.862;2023-03-08T10:46:57;15.32;;;2.78;;
72358;SDS011;60317;48.880;-0.862;2023-03-08T10:49:24;23.23;;;2.80;;
72358;SDS011;60317;48.880;-0.862;2023-03-08T10:51:54;19.73;;;2.80;;
72358;SDS011;60317;48.880;-0.862;2023-03-08T10:54:21;17.17;;;2.13;;
72358;SDS011;60317;48.880;-0.862;2023-03-08T10:56:51;16.83;;;3.20;;
72358;SDS011;60317;48.880;-0.862;2023-03-08T10:59:20;16.95;;;2.50;;
72358;SDS011;60317;48.880;-0.862;2023-03-08T11:01:49;20.55;;;2.45;;
72358;SDS011;60317;48.880;-0.862;2023-03-08T11:04:20;40.40;;;2.63;;
72358;SDS011;60317;48.880;-0.862;2023-03-08T11:06:48;22.20;;;3.15;;
72358;SDS011;60317;48.880;-0.862;2023-03-08T11:09:18;16.02;;;3.13;;
72358;SDS011;60317;48.880;-0.862;2023-03-08T11:11:46;21.63;;;2.65;;
72358;SDS011;60317;48.880;-0.862;2023-03-08T11:14:13;20.63;;;2.85;;
72358;SDS011;60317;48.880;-0.862;2023-03-08T11:16:44;13.60;;;2.63;;
72358;SDS011;60317;48.880;-0.862;2023-03-08T11:19:24;15.63;;;2.70;;
72358;SDS011;60317;48.880;-0.862;2023-03-08T11:21:59;24.38;;;2.92;;
72358;SDS011;60317;48.880;-0.862;2023-03-08T11:24:38;25.33;;;3.03;;
72358;SDS011;60317;48.880;-0.862;2023-03-08T11:27:21;24.95;;;3.70;;
72358;SDS011;60317;48.880;-0.862;2023-03-08T11:30:02;20.40;;;2.92;;
72358;SDS011;60317;48.880;-0.862;2023-03-08T11:32:43;39.78;;;3.50;;
72358;SDS011;60317;48.880;-0.862;2023-03-08T11:35:22;22.23;;;2.72;;
72358;SDS011;60317;48.880;-0.862;2023-03-08T11:37:56;15.70;;;2.45;;
72358;SDS011;60317;48.880;-0.862;2023-03-08T11:40:28;15.82;;;3.10;;
72358;SDS011;60317;48.880;-0.862;2023-03-08T11:43:06;21.77;;;2.85;;
72358;SDS011;60317;48.880;-0.862;2023-03-08T11:45:42;15.07;;;2.47;;
72358;SDS011;60317;48.880;-0.862;2023-03-08T11:48:18;16.48;;;2.75;;
72358;SDS011;60317;48.880;-0.862;2023-03-08T11:50:58;18.65;;;3.00;;
72358;SDS011;60317;48.880;-0.862;2023-03-08T11:53:32;15.82;;;2.55;;
72358;SDS011;60317;48.880;-0.862;2023-03-08T11:56:12;19.17;;;4.95;;
72358;SDS011;60317;48.880;-0.862;2023-03-08T12:01:05;27.08;;;6.68;;
72358;SDS011;60317;48.880;-0.862;2023-03-08T12:03:37;35.58;;;7.20;;
72358;SDS011;60317;48.880;-0.862;2023-03-08T12:06:09;18.88;;;6.20;;
72358;SDS011;60317;48.880;-0.862;2023-03-08T12:08:54;14.50;;;5.50;;
72358;SDS011;60317;48.880;-0.862;2023-03-08T12:11:25;26.40;;;5.97;;
72358;SDS011;60317;48.880;-0.862;2023-03-08T12:13:56;26.20;;;4.95;;
72358;SDS011;60317;48.880;-0.862;2023-03-08T12:16:29;30.70;;;6.40;;
72358;SDS011;60317;48.880;-0.862;2023-03-08T12:19:00;19.35;;;4.43;;
72358;SDS011;60317;48.880;-0.862;2023-03-08T12:21:36;23.67;;;3.90;;
72358;SDS011;60317;48.880;-0.862;2023-03-08T12:24:11;24.30;;;5.15;;
72358;SDS011;60317;48.880;-0.862;2023-03-08T12:26:50;33.10;;;4.65;;
72358;SDS011;60317;48.880;-0.862;2023-03-08T12:29:23;30.03;;;3.97;;
72358;SDS011;60317;48.880;-0.862;2023-03-08T12:31:57;14.00;;;4.10;;
72358;SDS011;60317;48.880;-0.862;2023-03-08T12:34:27;25.70;;;5.88;;
72358;SDS011;60317;48.880;-0.862;2023-03-08T12:37:02;29.30;;;3.90;;
72358;SDS011;60317;48.880;-0.862;2023-03-08T12:39:30;39.15;;;4.07;;
72358;SDS011;60317;48.880;-0.862;2023-03-08T12:41:59;22.92;;;3.83;;
72358;SDS011;60317;48.880;-0.862;2023-03-08T12:44:38;25.13;;;3.38;;
72358;SDS011;60317;48.880;-0.862;2023-03-08T12:47:17;17.35;;;3.30;;
72358;SDS011;60317;48.880;-0.862;2023-03-08T12:49:46;22.60;;;3.67;;
72358;SDS011;60317;48.880;-0.862;2023-03-08T12:54:57;23.65;;;3.95;;
72358;SDS011;60317;48.880;-0.862;2023-03-08T12:57:26;14.38;;;3.30;;
72358;SDS011;60317;48.880;-0.862;2023-03-08T12:59:56;17.80;;;3.28;;
72358;SDS011;60317;48.880;-0.862;2023-03-08T13:02:28;11.90;;;2.97;;
72358;SDS011;60317;48.880;-0.862;2023-03-08T13:05:00;10.13;;;2.80;;
72358;SDS011;60317;48.880;-0.862;2023-03-08T13:07:30;10.98;;;2.42;;
72358;SDS011;60317;48.880;-0.862;2023-03-08T13:10:03;11.65;;;3.50;;
72358;SDS011;60317;48.880;-0.862;2023-03-08T13:12:57;15.35;;;3.05;;
72358;SDS011;60317;48.880;-0.862;2023-03-08T13:15:30;7.43;;;2.30;;
72358;SDS011;60317;48.880;-0.862;2023-03-08T13:17:59;9.70;;;2.60;;
72358;SDS011;60317;48.880;-0.862;2023-03-08T13:20:28;11.73;;;2.35;;
72358;SDS011;60317;48.880;-0.862;2023-03-08T13:23:17;14.07;;;2.78;;
72358;SDS011;60317;48.880;-0.862;2023-03-08T13:25:54;12.98;;;2.70;;
72358;SDS011;60317;48.880;-0.862;2023-03-08T13:28:32;9.25;;;2.60;;
72358;SDS011;60317;48.880;-0.862;2023-03-08T13:31:13;10.43;;;2.47;;
72358;SDS011;60317;48.880;-0.862;2023-03-08T13:33:46;8.75;;;2.67;;
72358;SDS011;60317;48.880;-0.862;2023-03-08T13:36:16;10.30;;;2.40;;
72358;SDS011;60317;48.880;-0.862;2023-03-08T13:38:53;9.88;;;2.40;;
72358;SDS011;60317;48.880;-0.862;2023-03-08T13:41:31;6.85;;;2.22;;
72358;SDS011;60317;48.880;-0.862;2023-03-08T13:44:00;6.22;;;2.30;;
72358;SDS011;60317;48.880;-0.862;2023-03-08T13:46:27;11.35;;;2.95;;
72358;SDS011;60317;48.880;-0.862;2023-03-08T13:48:56;5.10;;;1.73;;
72358;SDS011;60317;48.880;-0.862;2023-03-08T13:51:23;8.13;;;2.40;;
72358;SDS011;60317;48.880;-0.862;2023-03-08T13:53:53;7.53;;;2.15;;
72358;SDS011;60317;48.880;-0.862;2023-03-08T13:56:21;4.18;;;1.98;;
72358;SDS011;60317;48.880;-0.862;2023-03-08T13:58:50;5.70;;;2.10;;
72358;SDS011;60317;48.880;-0.862;2023-03-08T14:01:19;6.60;;;2.33;;
72358;SDS011;60317;48.880;-0.862;2023-03-08T14:03:47;7.43;;;2.58;;
72358;SDS011;60317;48.880;-0.862;2023-03-08T14:06:18;5.80;;;1.90;;
72358;SDS011;60317;48.880;-0.862;2023-03-08T14:08:47;6.00;;;1.90;;
72358;SDS011;60317;48.880;-0.862;2023-03-08T14:11:15;5.07;;;1.77;;
72358;SDS011;60317;48.880;-0.862;2023-03-08T14:13:45;7.57;;;1.90;;
72358;SDS011;60317;48.880;-0.862;2023-03-08T14:16:22;4.90;;;1.42;;
72358;SDS011;60317;48.880;-0.862;2023-03-08T14:18:53;5.00;;;1.92;;
72358;SDS011;60317;48.880;-0.862;2023-03-08T14:21:22;6.22;;;1.80;;
72358;SDS011;60317;48.880;-0.862;2023-03-08T14:23:51;4.93;;;2.03;;
72358;SDS011;60317;48.880;-0.862;2023-03-08T14:26:23;3.78;;;2.05;;
72358;SDS011;60317;48.880;-0.862;2023-03-08T14:31:42;6.45;;;1.95;;
72358;SDS011;60317;48.880;-0.862;2023-03-08T14:34:19;4.78;;;1.92;;
72358;SDS011;60317;48.880;-0.862;2023-03-08T14:36:51;4.43;;;1.70;;
72358;SDS011;60317;48.880;-0.862;2023-03-08T14:39:20;5.60;;;1.52;;
72358;SDS011;60317;48.880;-0.862;2023-03-08T14:41:49;4.72;;;1.60;;
72358;SDS011;60317;48.880;-0.862;2023-03-08T14:44:18;3.95;;;1.55;;
72358;SDS011;60317;48.880;-0.862;2023-03-08T14:46:46;5.68;;;1.55;;
72358;SDS011;60317;48.880;-0.862;2023-03-08T14:49:21;5.32;;;1.88;;
72358;SDS011;60317;48.880;-0.862;2023-03-08T14:51:50;4.70;;;1.73;;
72358;SDS011;60317;48.880;-0.862;2023-03-08T14:54:19;4.75;;;1.80;;
72358;SDS011;60317;48.880;-0.862;2023-03-08T14:56:48;4.68;;;1.70;;
72358;SDS011;60317;48.880;-0.862;2023-03-08T14:59:15;5.38;;;1.90;;